WZZ29LW EVRA-EPKT
Flight info
| Callsign | WZZ29LW |
|---|---|
| Flight time | 1h 13m |
| Altitude | 37000 |
| Route | BERIL DCT BOKSU/N0431F380 DCT NEGUV/N0381F280 M66 KUKAM |
| Aircraft | A20N/M-SDE2E3FGHIRWXY/LB1 |
Departure
| Time | 2026-05-05 10:28 |
|---|---|
| Airport | Riga International Airport (EVRA) |
Arrival
| Time | 2026-05-05 11:41 |
|---|---|
| Airport | Katowice Wojciech Korfanty International Airport (EPKT) |
| Time | Latitude | Longitude | Altitude | Speed | Heading |
|---|---|---|---|---|---|
| 2026-05-05 10:16 | 56.92765 | 23.97875 | 44 ft | 0 kts | 95° |
| 2026-05-05 10:22 | 56.92766 | 23.97864 | 44 ft | 2 kts | 96° |
| 2026-05-05 10:22 | 56.92767 | 23.97844 | 44 ft | 2 kts | 96° |
| 2026-05-05 10:23 | 56.92768 | 23.97803 | 44 ft | 2 kts | 59° |
| 2026-05-05 10:23 | 56.92761 | 23.97787 | 44 ft | 2 kts | 43° |
| 2026-05-05 10:23 | 56.92747 | 23.97774 | 41 ft | 2 kts | 6° |
| 2026-05-05 10:23 | 56.92737 | 23.97772 | 44 ft | 1 kts | 5° |
| 2026-05-05 10:25 | 56.92740 | 23.97772 | 44 ft | 3 kts | 5° |
| 2026-05-05 10:25 | 56.92791 | 23.97782 | 44 ft | 13 kts | 6° |
| 2026-05-05 10:25 | 56.92911 | 23.97798 | 43 ft | 19 kts | 350° |
| 2026-05-05 10:25 | 56.92957 | 23.97645 | 44 ft | 14 kts | 308° |
| 2026-05-05 10:26 | 56.93045 | 23.97626 | 41 ft | 13 kts | 357° |
| 2026-05-05 10:26 | 56.93146 | 23.97630 | 44 ft | 16 kts | 355° |
| 2026-05-05 10:26 | 56.93256 | 23.97572 | 43 ft | 18 kts | 354° |
| 2026-05-05 10:26 | 56.93388 | 23.97583 | 44 ft | 20 kts | 4° |
| 2026-05-05 10:27 | 56.93489 | 23.97451 | 44 ft | 20 kts | 275° |
| 2026-05-05 10:27 | 56.93421 | 23.97284 | 43 ft | 19 kts | 186° |
| 2026-05-05 10:27 | 56.93157 | 23.97243 | 44 ft | 70 kts | 185° |
| 2026-05-05 10:27 | 56.92462 | 23.97126 | 44 ft | 127 kts | 186° |
| 2026-05-05 10:28 | 56.91459 | 23.96942 | 121 ft | 162 kts | 187° |
| 2026-05-05 10:28 | 56.90260 | 23.96802 | 457 ft | 181 kts | 186° |
| 2026-05-05 10:28 | 56.88938 | 23.96630 | 905 ft | 198 kts | 186° |
| 2026-05-05 10:28 | 56.87500 | 23.96443 | 1273 ft | 219 kts | 187° |
| 2026-05-05 10:29 | 56.85884 | 23.96094 | 1608 ft | 235 kts | 198° |
| 2026-05-05 10:29 | 56.84551 | 23.94720 | 2864 ft | 214 kts | 226° |
| 2026-05-05 10:29 | 56.83627 | 23.92652 | 4014 ft | 210 kts | 234° |
| 2026-05-05 10:29 | 56.82692 | 23.90479 | 4745 ft | 230 kts | 234° |
| 2026-05-05 10:30 | 56.81659 | 23.88074 | 5425 ft | 247 kts | 234° |
| 2026-05-05 10:30 | 56.80489 | 23.85735 | 6536 ft | 252 kts | 219° |
| 2026-05-05 10:30 | 56.78964 | 23.84096 | 7595 ft | 256 kts | 212° |
| 2026-05-05 10:30 | 56.77382 | 23.82548 | 8636 ft | 259 kts | 212° |
| 2026-05-05 10:31 | 56.75794 | 23.81019 | 9685 ft | 262 kts | 212° |
| 2026-05-05 10:31 | 56.74156 | 23.79434 | 10533 ft | 272 kts | 212° |
| 2026-05-05 10:31 | 56.72410 | 23.77721 | 10942 ft | 296 kts | 212° |
| 2026-05-05 10:31 | 56.70560 | 23.75900 | 11368 ft | 315 kts | 212° |
| 2026-05-05 10:32 | 56.68603 | 23.73987 | 12246 ft | 319 kts | 212° |
| 2026-05-05 10:32 | 56.66634 | 23.72067 | 13152 ft | 323 kts | 212° |
| 2026-05-05 10:32 | 56.64636 | 23.70116 | 13988 ft | 327 kts | 212° |
| 2026-05-05 10:32 | 56.62641 | 23.68169 | 14828 ft | 329 kts | 213° |
| 2026-05-05 10:33 | 56.60599 | 23.66179 | 15630 ft | 333 kts | 213° |
| 2026-05-05 10:33 | 56.58539 | 23.64172 | 16409 ft | 337 kts | 213° |
| 2026-05-05 10:33 | 56.56484 | 23.62172 | 17185 ft | 340 kts | 213° |
| 2026-05-05 10:33 | 56.54372 | 23.60120 | 17980 ft | 343 kts | 213° |
| 2026-05-05 10:34 | 56.52270 | 23.58079 | 18643 ft | 347 kts | 213° |
| 2026-05-05 10:34 | 56.50127 | 23.56000 | 19291 ft | 351 kts | 213° |
| 2026-05-05 10:34 | 56.47953 | 23.53894 | 19953 ft | 354 kts | 213° |
| 2026-05-05 10:34 | 56.45789 | 23.51800 | 20584 ft | 358 kts | 213° |
| 2026-05-05 10:35 | 56.43579 | 23.49664 | 21241 ft | 361 kts | 213° |
| 2026-05-05 10:35 | 56.41337 | 23.47501 | 21873 ft | 365 kts | 213° |
| 2026-05-05 10:35 | 56.39102 | 23.45370 | 22487 ft | 370 kts | 211° |
| 2026-05-05 10:35 | 56.36691 | 23.43563 | 23109 ft | 378 kts | 204° |
| 2026-05-05 10:36 | 56.34106 | 23.42317 | 23670 ft | 387 kts | 197° |
| 2026-05-05 10:36 | 56.31429 | 23.41679 | 24235 ft | 393 kts | 192° |
| 2026-05-05 10:36 | 56.28715 | 23.41203 | 24773 ft | 395 kts | 192° |
| 2026-05-05 10:36 | 56.25959 | 23.40705 | 25306 ft | 397 kts | 192° |
| 2026-05-05 10:37 | 56.23199 | 23.40195 | 25827 ft | 400 kts | 192° |
| 2026-05-05 10:37 | 56.20411 | 23.39676 | 26330 ft | 402 kts | 192° |
| 2026-05-05 10:37 | 56.17645 | 23.39160 | 26840 ft | 404 kts | 192° |
| 2026-05-05 10:37 | 56.14837 | 23.38636 | 27312 ft | 406 kts | 192° |
| 2026-05-05 10:38 | 56.12037 | 23.38114 | 27764 ft | 409 kts | 192° |
| 2026-05-05 10:38 | 56.09194 | 23.37585 | 28218 ft | 411 kts | 193° |
| 2026-05-05 10:38 | 56.06332 | 23.37054 | 28631 ft | 414 kts | 193° |
| 2026-05-05 10:38 | 56.03471 | 23.36524 | 29026 ft | 416 kts | 193° |
| 2026-05-05 10:39 | 56.00575 | 23.35988 | 29427 ft | 418 kts | 193° |
| 2026-05-05 10:39 | 55.97933 | 23.35500 | 29771 ft | 421 kts | 193° |
| 2026-05-05 10:39 | 55.95004 | 23.34959 | 30129 ft | 423 kts | 193° |
| 2026-05-05 10:39 | 55.92099 | 23.34423 | 30454 ft | 426 kts | 193° |
| 2026-05-05 10:40 | 55.89114 | 23.33874 | 30786 ft | 429 kts | 193° |
| 2026-05-05 10:40 | 55.86172 | 23.33333 | 31154 ft | 430 kts | 193° |
| 2026-05-05 10:40 | 55.83186 | 23.32788 | 31584 ft | 429 kts | 193° |
| 2026-05-05 10:40 | 55.80200 | 23.32244 | 32047 ft | 428 kts | 193° |
| 2026-05-05 10:41 | 55.77278 | 23.31711 | 32487 ft | 427 kts | 193° |
| 2026-05-05 10:41 | 55.74305 | 23.31169 | 32927 ft | 426 kts | 193° |
| 2026-05-05 10:41 | 55.71386 | 23.30637 | 33366 ft | 425 kts | 193° |
| 2026-05-05 10:41 | 55.68442 | 23.30101 | 33787 ft | 424 kts | 193° |
| 2026-05-05 10:42 | 55.62569 | 23.29031 | 34438 ft | 423 kts | 192° |
| 2026-05-05 10:42 | 55.59626 | 23.28495 | 34716 ft | 424 kts | 192° |
| 2026-05-05 10:42 | 55.56718 | 23.27966 | 35002 ft | 424 kts | 192° |
| 2026-05-05 10:43 | 55.53771 | 23.27433 | 35271 ft | 425 kts | 192° |
| 2026-05-05 10:43 | 55.50819 | 23.26899 | 35556 ft | 425 kts | 192° |
| 2026-05-05 10:43 | 55.47901 | 23.26373 | 35824 ft | 425 kts | 192° |
| 2026-05-05 10:43 | 55.44948 | 23.25842 | 36087 ft | 425 kts | 192° |
| 2026-05-05 10:44 | 55.41992 | 23.25311 | 36353 ft | 426 kts | 192° |
| 2026-05-05 10:44 | 55.39040 | 23.24782 | 36613 ft | 426 kts | 191° |
| 2026-05-05 10:44 | 55.36126 | 23.24260 | 36848 ft | 426 kts | 191° |
| 2026-05-05 10:45 | 55.30219 | 23.23206 | 36892 ft | 424 kts | 191° |
| 2026-05-05 10:45 | 55.24336 | 23.22159 | 36892 ft | 424 kts | 191° |
| 2026-05-05 10:46 | 55.18487 | 23.21120 | 36894 ft | 424 kts | 191° |
| 2026-05-05 10:46 | 55.12578 | 23.20074 | 36898 ft | 424 kts | 191° |
| 2026-05-05 10:47 | 55.06733 | 23.19044 | 36904 ft | 425 kts | 191° |
| 2026-05-05 10:47 | 55.00862 | 23.18013 | 36899 ft | 425 kts | 191° |
| 2026-05-05 10:48 | 54.94962 | 23.16978 | 36906 ft | 425 kts | 191° |
| 2026-05-05 10:48 | 54.90036 | 23.16116 | 36900 ft | 425 kts | 191° |
| 2026-05-05 10:49 | 54.84146 | 23.15089 | 36907 ft | 425 kts | 191° |
| 2026-05-05 10:49 | 54.78296 | 23.14077 | 36908 ft | 416 kts | 191° |
| 2026-05-05 10:50 | 54.72466 | 23.13058 | 36899 ft | 426 kts | 191° |
| 2026-05-05 10:50 | 54.66578 | 23.12042 | 36902 ft | 424 kts | 191° |
| 2026-05-05 10:51 | 54.60717 | 23.11023 | 36904 ft | 425 kts | 191° |
| 2026-05-05 10:51 | 54.54818 | 23.10013 | 36902 ft | 425 kts | 191° |
| 2026-05-05 10:52 | 54.48960 | 23.09014 | 36901 ft | 425 kts | 191° |
| 2026-05-05 10:52 | 54.43040 | 23.08003 | 36899 ft | 426 kts | 191° |
| 2026-05-05 10:53 | 54.37155 | 23.07000 | 36899 ft | 426 kts | 191° |
| 2026-05-05 10:53 | 54.31396 | 23.05196 | 36903 ft | 419 kts | 201° |
| 2026-05-05 10:54 | 54.26015 | 23.01507 | 36896 ft | 413 kts | 212° |
| 2026-05-05 10:54 | 54.21013 | 22.96743 | 36899 ft | 413 kts | 213° |
| 2026-05-05 10:55 | 54.15988 | 22.91982 | 36900 ft | 413 kts | 213° |
| 2026-05-05 10:55 | 54.10938 | 22.87231 | 36904 ft | 413 kts | 212° |
| 2026-05-05 10:56 | 54.05918 | 22.82528 | 36897 ft | 413 kts | 212° |
| 2026-05-05 10:56 | 54.00858 | 22.77800 | 36902 ft | 414 kts | 212° |
| 2026-05-05 10:57 | 53.95807 | 22.73092 | 36889 ft | 414 kts | 212° |
| 2026-05-05 10:57 | 53.90779 | 22.68425 | 36897 ft | 413 kts | 212° |
| 2026-05-05 10:58 | 53.85737 | 22.63754 | 36888 ft | 413 kts | 212° |
| 2026-05-05 10:58 | 53.80676 | 22.59079 | 36891 ft | 414 kts | 212° |
| 2026-05-05 10:59 | 53.75642 | 22.54446 | 36896 ft | 414 kts | 212° |
| 2026-05-05 10:59 | 53.70558 | 22.49846 | 36888 ft | 414 kts | 212° |
| 2026-05-05 11:00 | 53.65494 | 22.45273 | 36883 ft | 414 kts | 212° |
| 2026-05-05 11:00 | 53.60418 | 22.40688 | 36880 ft | 414 kts | 212° |
| 2026-05-05 11:01 | 53.55330 | 22.36106 | 36881 ft | 414 kts | 211° |
| 2026-05-05 11:01 | 53.50277 | 22.31570 | 36882 ft | 414 kts | 211° |
| 2026-05-05 11:02 | 53.45179 | 22.27009 | 36882 ft | 414 kts | 211° |
| 2026-05-05 11:02 | 53.40117 | 22.22492 | 36882 ft | 414 kts | 211° |
| 2026-05-05 11:03 | 53.35003 | 22.17940 | 36884 ft | 415 kts | 211° |
| 2026-05-05 11:03 | 53.29901 | 22.13413 | 36881 ft | 415 kts | 211° |
| 2026-05-05 11:04 | 53.24800 | 22.08897 | 36881 ft | 415 kts | 211° |
| 2026-05-05 11:04 | 53.19701 | 22.04396 | 36881 ft | 416 kts | 211° |
| 2026-05-05 11:05 | 53.14569 | 21.99877 | 36875 ft | 416 kts | 211° |
| 2026-05-05 11:05 | 53.09472 | 21.95402 | 36876 ft | 416 kts | 211° |
| 2026-05-05 11:06 | 53.04358 | 21.90924 | 36871 ft | 416 kts | 211° |
| 2026-05-05 11:06 | 52.99216 | 21.86434 | 36871 ft | 417 kts | 211° |
| 2026-05-05 11:07 | 52.94082 | 21.81963 | 36866 ft | 417 kts | 211° |
| 2026-05-05 11:07 | 52.88954 | 21.77510 | 36873 ft | 417 kts | 211° |
| 2026-05-05 11:08 | 52.83818 | 21.73060 | 36870 ft | 418 kts | 210° |
| 2026-05-05 11:08 | 52.78646 | 21.68593 | 36862 ft | 418 kts | 210° |
| 2026-05-05 11:09 | 52.73505 | 21.64164 | 36860 ft | 418 kts | 210° |
| 2026-05-05 11:09 | 52.68355 | 21.59739 | 36862 ft | 419 kts | 210° |
| 2026-05-05 11:10 | 52.63166 | 21.55293 | 36867 ft | 419 kts | 210° |
| 2026-05-05 11:10 | 52.58020 | 21.50895 | 36864 ft | 419 kts | 210° |
| 2026-05-05 11:11 | 52.52842 | 21.46482 | 36857 ft | 420 kts | 210° |
| 2026-05-05 11:11 | 52.48509 | 21.42797 | 36860 ft | 420 kts | 210° |
| 2026-05-05 11:12 | 52.43329 | 21.38404 | 36862 ft | 420 kts | 210° |
| 2026-05-05 11:12 | 52.38195 | 21.34061 | 36860 ft | 420 kts | 210° |
| 2026-05-05 11:13 | 52.32970 | 21.29653 | 36858 ft | 420 kts | 210° |
| 2026-05-05 11:13 | 52.27788 | 21.25293 | 36860 ft | 420 kts | 210° |
| 2026-05-05 11:14 | 52.22590 | 21.20932 | 36854 ft | 421 kts | 210° |
| 2026-05-05 11:14 | 52.17378 | 21.16569 | 36860 ft | 421 kts | 210° |
| 2026-05-05 11:15 | 52.12186 | 21.12234 | 36860 ft | 421 kts | 210° |
| 2026-05-05 11:15 | 52.06957 | 21.07881 | 36854 ft | 421 kts | 210° |
| 2026-05-05 11:15 | 52.04349 | 21.05715 | 36748 ft | 418 kts | 210° |
| 2026-05-05 11:16 | 52.02636 | 21.04293 | 36470 ft | 417 kts | 210° |
| 2026-05-05 11:17 | 51.85839 | 20.90412 | 31578 ft | 425 kts | 209° |
| 2026-05-05 11:17 | 51.83186 | 20.88230 | 30628 ft | 429 kts | 209° |
| 2026-05-05 11:18 | 51.80502 | 20.86026 | 29755 ft | 431 kts | 209° |
| 2026-05-05 11:18 | 51.77856 | 20.83858 | 29083 ft | 427 kts | 209° |
| 2026-05-05 11:18 | 51.75211 | 20.81694 | 28442 ft | 422 kts | 209° |
| 2026-05-05 11:18 | 51.72600 | 20.79560 | 27793 ft | 418 kts | 209° |
| 2026-05-05 11:19 | 51.70044 | 20.77473 | 27158 ft | 414 kts | 208° |
| 2026-05-05 11:19 | 51.67468 | 20.75372 | 26529 ft | 411 kts | 208° |
| 2026-05-05 11:19 | 51.64924 | 20.73299 | 25912 ft | 407 kts | 208° |
| 2026-05-05 11:19 | 51.62389 | 20.71236 | 25296 ft | 404 kts | 208° |
| 2026-05-05 11:20 | 51.59911 | 20.69222 | 24725 ft | 401 kts | 208° |
| 2026-05-05 11:20 | 51.57423 | 20.67202 | 24131 ft | 398 kts | 208° |
| 2026-05-05 11:20 | 51.54948 | 20.65195 | 23552 ft | 395 kts | 208° |
| 2026-05-05 11:20 | 51.52528 | 20.63235 | 22938 ft | 392 kts | 208° |
| 2026-05-05 11:21 | 51.50097 | 20.61268 | 22357 ft | 388 kts | 208° |
| 2026-05-05 11:21 | 51.47715 | 20.59342 | 21774 ft | 384 kts | 208° |
| 2026-05-05 11:21 | 51.45335 | 20.57421 | 21195 ft | 380 kts | 208° |
| 2026-05-05 11:21 | 51.43011 | 20.55468 | 20642 ft | 375 kts | 214° |
| 2026-05-05 11:22 | 51.40927 | 20.52964 | 20090 ft | 370 kts | 219° |
| 2026-05-05 11:22 | 51.38933 | 20.50452 | 19557 ft | 367 kts | 219° |
| 2026-05-05 11:22 | 51.36919 | 20.47908 | 19028 ft | 363 kts | 219° |
| 2026-05-05 11:22 | 51.34965 | 20.45441 | 18500 ft | 360 kts | 219° |
| 2026-05-05 11:23 | 51.32993 | 20.42961 | 17974 ft | 357 kts | 219° |
| 2026-05-05 11:23 | 51.31047 | 20.40520 | 17442 ft | 353 kts | 219° |
| 2026-05-05 11:23 | 51.29140 | 20.38133 | 16920 ft | 349 kts | 219° |
| 2026-05-05 11:23 | 51.27237 | 20.35753 | 16398 ft | 345 kts | 219° |
| 2026-05-05 11:24 | 51.25347 | 20.33392 | 15869 ft | 342 kts | 219° |
| 2026-05-05 11:24 | 51.23483 | 20.31064 | 15343 ft | 338 kts | 219° |
| 2026-05-05 11:24 | 51.21656 | 20.28782 | 14840 ft | 335 kts | 219° |
| 2026-05-05 11:24 | 51.19814 | 20.26484 | 14320 ft | 332 kts | 219° |
| 2026-05-05 11:25 | 51.17999 | 20.24224 | 13840 ft | 329 kts | 219° |
| 2026-05-05 11:25 | 51.16203 | 20.21989 | 13339 ft | 326 kts | 219° |
| 2026-05-05 11:25 | 51.14436 | 20.19794 | 12795 ft | 323 kts | 219° |
| 2026-05-05 11:25 | 51.12671 | 20.17602 | 12269 ft | 320 kts | 219° |
| 2026-05-05 11:26 | 51.10912 | 20.15420 | 11740 ft | 318 kts | 219° |
| 2026-05-05 11:26 | 51.09191 | 20.13293 | 11209 ft | 315 kts | 218° |
| 2026-05-05 11:26 | 51.07455 | 20.11145 | 10671 ft | 313 kts | 218° |
| 2026-05-05 11:26 | 51.05738 | 20.09022 | 10164 ft | 310 kts | 218° |
| 2026-05-05 11:27 | 51.04089 | 20.06987 | 10021 ft | 297 kts | 218° |
| 2026-05-05 11:27 | 51.02496 | 20.05021 | 9902 ft | 283 kts | 218° |
| 2026-05-05 11:27 | 51.00979 | 20.03154 | 9812 ft | 272 kts | 218° |
| 2026-05-05 11:27 | 50.99506 | 20.01340 | 9598 ft | 263 kts | 218° |
| 2026-05-05 11:28 | 50.98057 | 19.99554 | 9167 ft | 262 kts | 218° |
| 2026-05-05 11:28 | 50.96607 | 19.97775 | 8733 ft | 263 kts | 218° |
| 2026-05-05 11:28 | 50.95181 | 19.96026 | 8339 ft | 262 kts | 218° |
| 2026-05-05 11:28 | 50.94696 | 19.95430 | 8199 ft | 261 kts | 218° |
| 2026-05-05 11:30 | 50.86353 | 19.85200 | 6040 ft | 261 kts | 217° |
| 2026-05-05 11:30 | 50.83949 | 19.82258 | 5558 ft | 257 kts | 216° |
| 2026-05-05 11:30 | 50.83007 | 19.81110 | 5363 ft | 257 kts | 217° |
| 2026-05-05 11:31 | 50.81127 | 19.78819 | 4940 ft | 253 kts | 216° |
| 2026-05-05 11:31 | 50.80197 | 19.77685 | 4893 ft | 256 kts | 216° |
| 2026-05-05 11:31 | 50.78776 | 19.75963 | 4848 ft | 255 kts | 216° |
| 2026-05-05 11:31 | 50.77356 | 19.74240 | 4849 ft | 260 kts | 216° |
| 2026-05-05 11:32 | 50.75938 | 19.72529 | 4853 ft | 259 kts | 217° |
| 2026-05-05 11:32 | 50.74535 | 19.70812 | 4861 ft | 255 kts | 216° |
| 2026-05-05 11:32 | 50.73105 | 19.69079 | 4846 ft | 260 kts | 216° |
| 2026-05-05 11:32 | 50.71695 | 19.67355 | 4838 ft | 255 kts | 216° |
| 2026-05-05 11:33 | 50.70301 | 19.65664 | 4846 ft | 253 kts | 216° |
| 2026-05-05 11:33 | 50.68886 | 19.63963 | 4864 ft | 255 kts | 216° |
| 2026-05-05 11:33 | 50.67501 | 19.62291 | 4831 ft | 252 kts | 216° |
| 2026-05-05 11:33 | 50.66109 | 19.60602 | 4868 ft | 252 kts | 216° |
| 2026-05-05 11:34 | 50.64711 | 19.58909 | 4853 ft | 252 kts | 216° |
| 2026-05-05 11:34 | 50.63327 | 19.57226 | 4835 ft | 253 kts | 216° |
| 2026-05-05 11:34 | 50.61923 | 19.55524 | 4850 ft | 253 kts | 216° |
| 2026-05-05 11:34 | 50.60550 | 19.53876 | 4845 ft | 250 kts | 216° |
| 2026-05-05 11:35 | 50.59138 | 19.52198 | 4838 ft | 255 kts | 215° |
| 2026-05-05 11:35 | 50.57739 | 19.50528 | 4843 ft | 254 kts | 215° |
| 2026-05-05 11:35 | 50.56339 | 19.48853 | 4862 ft | 254 kts | 215° |
| 2026-05-05 11:35 | 50.54933 | 19.47180 | 4847 ft | 251 kts | 216° |
| 2026-05-05 11:36 | 50.53561 | 19.45512 | 4851 ft | 253 kts | 216° |
| 2026-05-05 11:36 | 50.52172 | 19.43824 | 4876 ft | 254 kts | 216° |
| 2026-05-05 11:36 | 50.50769 | 19.42141 | 4865 ft | 248 kts | 216° |
| 2026-05-05 11:36 | 50.49417 | 19.40525 | 4863 ft | 238 kts | 215° |
| 2026-05-05 11:37 | 50.48193 | 19.38927 | 4865 ft | 227 kts | 229° |
| 2026-05-05 11:37 | 50.47537 | 19.36728 | 4852 ft | 220 kts | 257° |
| 2026-05-05 11:37 | 50.47511 | 19.34376 | 4857 ft | 215 kts | 265° |
| 2026-05-05 11:37 | 50.47542 | 19.32004 | 4859 ft | 215 kts | 266° |
| 2026-05-05 11:38 | 50.47553 | 19.29789 | 4846 ft | 191 kts | 264° |
| 2026-05-05 11:38 | 50.47557 | 19.27754 | 4883 ft | 183 kts | 264° |
| 2026-05-05 11:38 | 50.47566 | 19.25875 | 4816 ft | 161 kts | 265° |
| 2026-05-05 11:38 | 50.47568 | 19.24227 | 4679 ft | 143 kts | 263° |
| 2026-05-05 11:39 | 50.47573 | 19.22613 | 4287 ft | 152 kts | 263° |
| 2026-05-05 11:39 | 50.47587 | 19.21024 | 3872 ft | 155 kts | 263° |
| 2026-05-05 11:39 | 50.47604 | 19.19301 | 3366 ft | 160 kts | 264° |
| 2026-05-05 11:39 | 50.47649 | 19.17533 | 2803 ft | 163 kts | 266° |
| 2026-05-05 11:40 | 50.47681 | 19.15836 | 2339 ft | 155 kts | 262° |
| 2026-05-05 11:40 | 50.47611 | 19.14191 | 1900 ft | 148 kts | 260° |
| 2026-05-05 11:40 | 50.47615 | 19.12582 | 1452 ft | 147 kts | 264° |
| 2026-05-05 11:40 | 50.47597 | 19.11028 | 1169 ft | 137 kts | 265° |
| 2026-05-05 11:41 | 50.47599 | 19.09620 | 1016 ft | 122 kts | 262° |
| 2026-05-05 11:41 | 50.47588 | 19.08492 | 997 ft | 86 kts | 272° |
| 2026-05-05 11:41 | 50.47595 | 19.07883 | 997 ft | 27 kts | 269° |
| 2026-05-05 11:41 | 50.47600 | 19.07605 | 1000 ft | 27 kts | 270° |
| 2026-05-05 11:42 | 50.47593 | 19.07284 | 1001 ft | 31 kts | 267° |
| 2026-05-05 11:42 | 50.47526 | 19.06956 | 999 ft | 32 kts | 239° |
| 2026-05-05 11:42 | 50.47437 | 19.06872 | 999 ft | 6 kts | 142° |
| 2026-05-05 11:42 | 50.47426 | 19.06951 | 998 ft | 12 kts | 92° |
| 2026-05-05 11:43 | 50.47427 | 19.07145 | 998 ft | 23 kts | 90° |
| 2026-05-05 11:43 | 50.47419 | 19.07422 | 998 ft | 22 kts | 121° |
| 2026-05-05 11:43 | 50.47377 | 19.07445 | 998 ft | 6 kts | 184° |
| 2026-05-05 11:43 | 50.47329 | 19.07442 | 998 ft | 8 kts | 180° |
| 2026-05-05 11:44 | 50.47263 | 19.07436 | 998 ft | 10 kts | 198° |
| 2026-05-05 11:44 | 50.47236 | 19.07334 | 998 ft | 12 kts | 268° |
| 2026-05-05 11:44 | 50.47227 | 19.07207 | 1000 ft | 6 kts | 229° |
| 2026-05-05 11:44 | 50.47205 | 19.07211 | 998 ft | 6 kts | 175° |